Time;durP1;ratioP1;P1;durP2;ratioP2;P2;SDS_P1;SDS_P2;PMS_P1;PMS_P2;Temp;Humidity;BMP_temperature;BMP_pressure;BME280_temperature;BME280_humidity;BME280_pressure;Samples;Min_cycle;Max_cycle;Signal;HPM_P1;HPM_P2
2021/12/08 00:01:51;;;;;;;7.57;6.27;;;;;;;;;;5096334;28;20185;-86
2021/12/08 00:04:20;;;;;;;7.17;5.50;;;;;;;;;;5096350;28;20278;-86
2021/12/08 00:06:50;;;;;;;6.90;6.20;;;;;;;;;;5096247;28;20298;-86
2021/12/08 00:09:27;;;;;;;6.87;6.07;;;;;;;;;;5096652;28;20205;-86
2021/12/08 00:14:42;;;;;;;8.27;6.67;;;;;;;;;;5096737;28;20240;-86
2021/12/08 00:17:12;;;;;;;7.13;6.53;;;;;;;;;;5096646;28;20247;-86
2021/12/08 00:19:40;;;;;;;7.10;6.50;;;;;;;;;;5096800;28;20230;-86
2021/12/08 00:22:09;;;;;;;8.53;7.67;;;;;;;;;;5096385;28;20209;-86
2021/12/08 00:24:37;;;;;;;8.97;8.13;;;;;;;;;;5096601;28;20200;-86
2021/12/08 00:27:06;;;;;;;9.03;8.23;;;;;;;;;;5096273;28;20220;-86
2021/12/08 00:29:34;;;;;;;9.53;8.77;;;;;;;;;;5096239;28;20204;-86
2021/12/08 00:32:05;;;;;;;8.50;7.67;;;;;;;;;;5096722;28;20205;-86
2021/12/08 00:34:35;;;;;;;10.70;9.13;;;;;;;;;;5096609;28;20258;-85
2021/12/08 00:37:03;;;;;;;9.27;8.47;;;;;;;;;;5096503;28;20258;-86
2021/12/08 00:39:32;;;;;;;10.03;9.00;;;;;;;;;;5096292;28;20201;-86
2021/12/08 00:42:00;;;;;;;11.00;9.90;;;;;;;;;;5095994;28;20258;-86
2021/12/08 00:44:29;;;;;;;7.93;7.23;;;;;;;;;;5095934;28;20239;-86
2021/12/08 00:46:57;;;;;;;8.40;7.30;;;;;;;;;;5095935;28;20262;-86
2021/12/08 00:49:26;;;;;;;9.97;9.00;;;;;;;;;;5096006;28;20205;-86
2021/12/08 00:51:56;;;;;;;10.73;9.73;;;;;;;;;;5096027;28;20274;-86
2021/12/08 00:54:24;;;;;;;10.07;9.07;;;;;;;;;;5096272;28;20242;-86
2021/12/08 00:56:53;;;;;;;10.00;9.07;;;;;;;;;;5095713;28;20208;-86
2021/12/08 00:59:22;;;;;;;13.43;12.23;;;;;;;;;;5095401;28;20213;-86
2021/12/08 01:01:50;;;;;;;11.40;10.33;;;;;;;;;;5095442;28;20208;-86
2021/12/08 01:04:22;;;;;;;11.83;8.73;;;;;;;;;;5095736;28;20278;-86
2021/12/08 01:06:50;;;;;;;14.10;12.70;;;;;;;;;;5095695;28;20274;-86
2021/12/08 01:09:23;;;;;;;11.87;10.67;;;;;;;;;;5095202;28;20201;-86
2021/12/08 01:11:51;;;;;;;13.40;10.73;;;;;;;;;;5095841;28;20233;-86
2021/12/08 01:14:20;;;;;;;9.90;8.33;;;;;;;;;;5095174;28;20197;-86
2021/12/08 01:17:11;;;;;;;8.13;7.40;;;;;;;;;;5153765;27;20285;-85
2021/12/08 01:19:40;;;;;;;14.13;12.73;;;;;;;;;;5154424;27;20238;-85
2021/12/08 01:22:08;;;;;;;14.30;12.90;;;;;;;;;;5154105;27;20255;-85
2021/12/08 01:24:36;;;;;;;8.17;7.37;;;;;;;;;;5153668;27;20206;-85
2021/12/08 01:27:05;;;;;;;12.43;11.07;;;;;;;;;;5153710;27;20214;-85
2021/12/08 01:29:34;;;;;;;15.37;13.80;;;;;;;;;;5153536;27;20252;-85
2021/12/08 01:32:02;;;;;;;13.37;12.00;;;;;;;;;;5153314;27;20285;-85
2021/12/08 01:34:32;;;;;;;16.67;15.07;;;;;;;;;;5153916;27;20263;-85
2021/12/08 01:37:01;;;;;;;13.63;12.27;;;;;;;;;;5153405;27;20250;-85
2021/12/08 01:39:29;;;;;;;15.17;12.87;;;;;;;;;;5153383;27;20207;-86
2021/12/08 01:41:58;;;;;;;15.37;13.77;;;;;;;;;;5153443;27;20198;-85
2021/12/08 01:47:12;;;;;;;15.30;13.90;;;;;;;;;;5153027;27;20196;-85
2021/12/08 01:49:42;;;;;;;13.57;12.27;;;;;;;;;;5152877;27;20209;-85
2021/12/08 01:52:10;;;;;;;14.40;13.00;;;;;;;;;;5153089;27;20228;-85
2021/12/08 01:54:39;;;;;;;17.77;16.17;;;;;;;;;;5153360;27;20219;-85
2021/12/08 01:57:09;;;;;;;13.77;11.97;;;;;;;;;;5152166;27;20238;-85
2021/12/08 01:59:38;;;;;;;13.47;11.70;;;;;;;;;;5153206;27;20202;-85
2021/12/08 02:02:06;;;;;;;12.17;10.87;;;;;;;;;;5152754;27;20207;-85
2021/12/08 02:04:36;;;;;;;6.33;3.43;;;;;;;;;;5152500;27;20218;-85
2021/12/08 02:07:06;;;;;;;3.17;2.57;;;;;;;;;;5152459;27;20222;-85
2021/12/08 02:09:34;;;;;;;2.43;2.03;;;;;;;;;;5152442;27;20203;-85
2021/12/08 02:12:02;;;;;;;1.43;1.43;;;;;;;;;;5152111;27;20256;-85
2021/12/08 02:14:32;;;;;;;4.80;2.23;;;;;;;;;;5151979;27;20207;-85
2021/12/08 02:17:00;;;;;;;3.53;2.47;;;;;;;;;;5151693;27;20226;-85
2021/12/08 02:19:29;;;;;;;4.10;2.43;;;;;;;;;;5151877;27;20204;-85
2021/12/08 02:21:59;;;;;;;4.10;2.63;;;;;;;;;;5152024;27;20207;-86
2021/12/08 02:24:30;;;;;;;7.00;3.47;;;;;;;;;;5152170;27;20207;-85
2021/12/08 02:26:59;;;;;;;6.57;5.60;;;;;;;;;;5146361;27;20204;-86
2021/12/08 02:29:36;;;;;;;5.40;4.90;;;;;;;;;;5138639;27;20222;-85
2021/12/08 02:32:11;;;;;;;8.43;7.47;;;;;;;;;;5138212;27;20207;-85
2021/12/08 02:48:31;;;;;;;5.13;3.77;;;;;;;;;;5137841;27;20260;-85
2021/12/08 02:51:00;;;;;;;4.50;2.90;;;;;;;;;;5137786;27;20208;-85
2021/12/08 02:53:32;;;;;;;5.10;3.57;;;;;;;;;;5137812;27;20200;-86
2021/12/08 02:56:01;;;;;;;6.03;2.77;;;;;;;;;;5138161;27;20219;-85
2021/12/08 02:58:30;;;;;;;4.37;2.80;;;;;;;;;;5137886;27;20212;-86
2021/12/08 03:00:59;;;;;;;4.47;2.27;;;;;;;;;;5137539;27;20230;-85
2021/12/08 03:03:28;;;;;;;5.43;2.27;;;;;;;;;;5137569;27;20218;-85
2021/12/08 03:05:56;;;;;;;3.90;2.20;;;;;;;;;;5137628;27;20207;-86
2021/12/08 03:08:27;;;;;;;4.30;2.67;;;;;;;;;;5137616;27;20246;-85
2021/12/08 03:10:57;;;;;;;6.10;2.17;;;;;;;;;;5137843;27;20191;-86
2021/12/08 03:13:30;;;;;;;8.40;3.13;;;;;;;;;;5138202;27;20233;-85
2021/12/08 03:16:00;;;;;;;6.80;2.30;;;;;;;;;;5129747;27;20255;-85
2021/12/08 03:18:33;;;;;;;8.20;2.07;;;;;;;;;;5137883;27;20199;-86
2021/12/08 03:21:02;;;;;;;5.30;2.40;;;;;;;;;;5137697;27;20195;-86
2021/12/08 03:23:44;;;;;;;4.13;2.00;;;;;;;;;;5137920;27;20280;-85
2021/12/08 03:26:14;;;;;;;3.40;1.80;;;;;;;;;;5117174;28;20181;-85
2021/12/08 03:28:56;;;;;;;3.20;1.97;;;;;;;;;;5116579;28;20208;-85
2021/12/08 03:31:30;;;;;;;4.60;1.70;;;;;;;;;;5117140;28;20214;-85
2021/12/08 03:33:59;;;;;;;1.53;1.40;;;;;;;;;;5131287;27;20192;-85
2021/12/08 03:36:27;;;;;;;5.73;1.80;;;;;;;;;;5137414;27;20250;-85
2021/12/08 03:38:56;;;;;;;6.50;1.97;;;;;;;;;;5136284;27;20198;-85
2021/12/08 03:41:31;;;;;;;4.90;1.97;;;;;;;;;;5137463;27;20260;-85
2021/12/08 03:44:00;;;;;;;3.73;1.70;;;;;;;;;;5137273;27;20220;-85
2021/12/08 03:46:31;;;;;;;2.07;1.17;;;;;;;;;;5137265;27;20268;-85
2021/12/08 03:49:00;;;;;;;2.40;1.47;;;;;;;;;;5137160;27;20276;-85
2021/12/08 03:51:29;;;;;;;8.03;1.60;;;;;;;;;;5136566;27;20211;-85
2021/12/08 03:53:57;;;;;;;2.17;1.40;;;;;;;;;;5136408;27;20242;-85
2021/12/08 03:56:27;;;;;;;1.70;1.30;;;;;;;;;;5136224;27;20223;-85
2021/12/08 03:58:56;;;;;;;7.40;2.17;;;;;;;;;;5136379;27;20188;-85
2021/12/08 04:01:24;;;;;;;4.80;1.80;;;;;;;;;;5136436;27;20219;-85
2021/12/08 04:04:00;;;;;;;3.07;2.30;;;;;;;;;;5136167;27;20252;-85
2021/12/08 04:06:32;;;;;;;3.97;3.30;;;;;;;;;;5136084;27;20244;-85
2021/12/08 04:09:05;;;;;;;6.00;3.30;;;;;;;;;;5136348;27;20184;-85
2021/12/08 04:11:35;;;;;;;6.73;4.23;;;;;;;;;;5136007;27;20282;-85
2021/12/08 04:14:05;;;;;;;5.37;4.33;;;;;;;;;;5135966;27;20203;-85
2021/12/08 04:16:36;;;;;;;7.80;5.23;;;;;;;;;;5135766;27;20240;-85
2021/12/08 04:19:06;;;;;;;6.40;3.23;;;;;;;;;;5136244;27;20204;-85
2021/12/08 04:21:35;;;;;;;7.93;4.27;;;;;;;;;;5136223;27;20229;-85
2021/12/08 04:24:04;;;;;;;6.57;4.43;;;;;;;;;;5136131;27;20204;-86
2021/12/08 04:26:34;;;;;;;5.47;4.90;;;;;;;;;;5135763;27;20229;-85
2021/12/08 04:29:05;;;;;;;4.17;3.50;;;;;;;;;;5136045;27;20269;-85
2021/12/08 04:31:35;;;;;;;6.07;3.90;;;;;;;;;;5136136;27;20180;-85
2021/12/08 04:34:05;;;;;;;5.30;4.27;;;;;;;;;;5136131;27;20199;-85
2021/12/08 04:36:39;;;;;;;5.80;3.73;;;;;;;;;;5135682;27;20203;-85
2021/12/08 04:39:14;;;;;;;2.80;2.40;;;;;;;;;;5135653;27;20194;-85
2021/12/08 04:41:48;;;;;;;6.73;3.70;;;;;;;;;;5135888;27;20203;-86
2021/12/08 04:44:26;;;;;;;5.07;3.27;;;;;;;;;;5136087;27;20227;-85
2021/12/08 04:47:17;;;;;;;3.70;2.40;;;;;;;;;;5135866;27;20281;-85
2021/12/08 04:53:04;;;;;;;4.80;2.83;;;;;;;;;;5102623;27;20242;-85
2021/12/08 05:04:10;;;;;;;5.33;3.70;;;;;;;;;;5135870;27;20215;-85
2021/12/08 05:06:46;;;;;;;4.13;2.37;;;;;;;;;;5136140;27;20187;-85
2021/12/08 05:09:17;;;;;;;12.30;4.47;;;;;;;;;;5136014;27;20184;-85
2021/12/08 05:11:47;;;;;;;8.53;3.43;;;;;;;;;;5135476;27;20299;-85
2021/12/08 05:14:17;;;;;;;4.07;3.33;;;;;;;;;;5135316;27;20191;-85
2021/12/08 05:16:48;;;;;;;8.20;4.70;;;;;;;;;;5134814;27;20234;-85
2021/12/08 05:19:20;;;;;;;12.50;4.40;;;;;;;;;;5135026;27;20199;-85
2021/12/08 05:21:50;;;;;;;10.80;4.03;;;;;;;;;;5135129;27;20402;-85
2021/12/08 05:24:20;;;;;;;6.33;3.60;;;;;;;;;;5135036;27;20224;-85
2021/12/08 05:26:52;;;;;;;4.03;2.63;;;;;;;;;;5135294;27;20200;-85
2021/12/08 05:29:21;;;;;;;8.37;3.60;;;;;;;;;;5134974;27;20243;-84
2021/12/08 05:31:52;;;;;;;8.77;3.80;;;;;;;;;;5134483;27;20267;-85
2021/12/08 05:34:23;;;;;;;6.90;3.13;;;;;;;;;;5134944;27;20180;-83
2021/12/08 05:36:51;;;;;;;3.67;2.83;;;;;;;;;;5134320;27;20204;-85
2021/12/08 05:39:21;;;;;;;10.03;4.23;;;;;;;;;;5134868;27;20203;-85
2021/12/08 05:41:52;;;;;;;6.63;3.87;;;;;;;;;;5134542;27;20212;-85
2021/12/08 05:44:21;;;;;;;7.33;4.57;;;;;;;;;;5134980;27;20191;-84
2021/12/08 05:46:53;;;;;;;9.23;4.63;;;;;;;;;;5135100;27;20252;-85
2021/12/08 05:49:22;;;;;;;8.37;4.33;;;;;;;;;;5134860;27;20257;-84
2021/12/08 05:51:53;;;;;;;7.97;5.27;;;;;;;;;;5134472;27;20295;-85
2021/12/08 05:54:23;;;;;;;10.03;4.30;;;;;;;;;;5134380;27;20208;-84
2021/12/08 05:56:54;;;;;;;12.07;4.30;;;;;;;;;;5135134;27;20219;-85
2021/12/08 05:59:23;;;;;;;11.13;5.63;;;;;;;;;;5136393;27;20242;-85
2021/12/08 06:01:54;;;;;;;10.53;6.40;;;;;;;;;;5136990;27;20208;-85
2021/12/08 06:04:23;;;;;;;13.00;4.27;;;;;;;;;;5140632;27;20227;-87
2021/12/08 06:06:52;;;;;;;7.67;5.07;;;;;;;;;;5140858;27;20204;-85
2021/12/08 06:09:22;;;;;;;14.23;6.83;;;;;;;;;;5140247;27;20199;-84
2021/12/08 06:11:51;;;;;;;11.30;7.40;;;;;;;;;;5140706;27;20242;-85
2021/12/08 06:14:22;;;;;;;10.00;4.50;;;;;;;;;;5141708;27;20204;-85
2021/12/08 06:16:53;;;;;;;10.30;5.57;;;;;;;;;;5141556;27;20253;-85
2021/12/08 06:19:22;;;;;;;11.63;5.00;;;;;;;;;;5141952;27;20227;-85
2021/12/08 06:21:52;;;;;;;10.80;4.50;;;;;;;;;;5141867;27;20187;-85
2021/12/08 06:24:23;;;;;;;9.63;4.90;;;;;;;;;;5141169;27;20200;-85
2021/12/08 06:26:51;;;;;;;5.03;3.27;;;;;;;;;;5141690;27;20200;-84
2021/12/08 06:29:21;;;;;;;12.50;6.57;;;;;;;;;;5141567;27;20227;-85
2021/12/08 06:31:52;;;;;;;11.57;4.90;;;;;;;;;;5141643;27;20212;-86
2021/12/08 06:34:23;;;;;;;6.40;3.53;;;;;;;;;;5141212;27;20204;-86
2021/12/08 06:36:53;;;;;;;6.47;3.60;;;;;;;;;;5141127;27;20196;-86
2021/12/08 06:39:23;;;;;;;7.47;4.07;;;;;;;;;;5141110;27;20228;-86
2021/12/08 06:41:53;;;;;;;8.60;3.53;;;;;;;;;;5141623;27;20217;-86
2021/12/08 06:44:25;;;;;;;8.53;4.23;;;;;;;;;;5141224;27;20241;-86
2021/12/08 06:46:54;;;;;;;6.30;3.10;;;;;;;;;;5139191;27;20204;-86
2021/12/08 06:49:24;;;;;;;6.17;2.43;;;;;;;;;;5138319;27;20203;-86
2021/12/08 06:51:54;;;;;;;9.03;3.93;;;;;;;;;;5138128;27;20208;-85
2021/12/08 06:54:25;;;;;;;4.77;2.20;;;;;;;;;;5138362;27;20200;-86
2021/12/08 06:56:56;;;;;;;9.10;2.80;;;;;;;;;;5139121;27;20192;-87
2021/12/08 06:59:26;;;;;;;7.60;4.30;;;;;;;;;;5138227;27;20239;-87
2021/12/08 07:02:05;;;;;;;11.20;4.40;;;;;;;;;;5137860;27;20207;-86
2021/12/08 07:04:52;;;;;;;7.13;2.97;;;;;;;;;;5138578;27;20227;-88
2021/12/08 07:07:22;;;;;;;9.00;2.80;;;;;;;;;;5138099;27;20199;-89
2021/12/08 07:09:55;;;;;;;2.40;1.70;;;;;;;;;;5136843;27;20195;-89
2021/12/08 07:12:24;;;;;;;2.33;2.13;;;;;;;;;;5136757;27;20210;-88
2021/12/08 07:14:55;;;;;;;3.20;1.47;;;;;;;;;;5137200;27;20260;-88
2021/12/08 07:17:25;;;;;;;2.43;2.00;;;;;;;;;;5136776;27;20256;-88
2021/12/08 07:20:03;;;;;;;3.60;2.30;;;;;;;;;;5136684;27;20212;-89
2021/12/08 07:22:34;;;;;;;2.13;1.93;;;;;;;;;;5136635;27;20196;-89
2021/12/08 07:25:06;;;;;;;1.33;1.27;;;;;;;;;;5136693;27;20204;-88
2021/12/08 07:27:37;;;;;;;3.37;1.77;;;;;;;;;;5137119;27;20225;-88
2021/12/08 07:30:07;;;;;;;4.20;2.63;;;;;;;;;;5136765;27;20248;-88
2021/12/08 07:32:37;;;;;;;7.40;3.37;;;;;;;;;;5136984;27;20207;-87
2021/12/08 07:35:11;;;;;;;9.87;4.03;;;;;;;;;;5137155;27;20202;-87
2021/12/08 07:37:39;;;;;;;6.77;4.20;;;;;;;;;;5136555;27;20219;-86
2021/12/08 07:40:13;;;;;;;6.73;3.23;;;;;;;;;;5136321;27;20303;-84
2021/12/08 07:42:44;;;;;;;5.87;2.97;;;;;;;;;;5136646;27;20233;-85
2021/12/08 07:45:19;;;;;;;9.47;3.77;;;;;;;;;;5136869;27;20204;-85
2021/12/08 07:47:51;;;;;;;7.77;3.80;;;;;;;;;;5136087;27;20208;-83
2021/12/08 07:50:27;;;;;;;10.37;5.23;;;;;;;;;;5136656;27;20188;-83
2021/12/08 07:52:58;;;;;;;11.60;4.63;;;;;;;;;;5136277;27;20199;-83
2021/12/08 07:55:29;;;;;;;6.43;2.67;;;;;;;;;;5136699;27;20199;-87
2021/12/08 07:57:58;;;;;;;9.90;4.73;;;;;;;;;;5135918;27;20234;-82
2021/12/08 08:00:28;;;;;;;10.60;4.73;;;;;;;;;;5135989;27;20233;-82
2021/12/08 08:03:00;;;;;;;6.80;3.30;;;;;;;;;;5136029;27;20227;-82
2021/12/08 08:05:37;;;;;;;7.20;3.87;;;;;;;;;;5136376;27;20287;-82
2021/12/08 08:08:08;;;;;;;8.80;3.83;;;;;;;;;;5135822;27;20255;-83
2021/12/08 08:10:42;;;;;;;12.73;4.80;;;;;;;;;;5135641;27;20207;-82
2021/12/08 08:13:13;;;;;;;9.47;4.57;;;;;;;;;;5136126;27;20221;-83
2021/12/08 08:15:50;;;;;;;7.67;3.90;;;;;;;;;;5136006;27;20224;-82
2021/12/08 08:18:24;;;;;;;9.17;4.47;;;;;;;;;;5136198;27;20206;-83
2021/12/08 08:20:58;;;;;;;10.83;5.43;;;;;;;;;;5136162;27;20206;-82
2021/12/08 08:23:28;;;;;;;7.77;4.50;;;;;;;;;;5135454;27;20204;-83
2021/12/08 08:25:58;;;;;;;10.53;4.73;;;;;;;;;;5135484;27;20256;-82
2021/12/08 08:28:26;;;;;;;13.80;4.77;;;;;;;;;;5135873;27;20196;-83
2021/12/08 08:30:57;;;;;;;14.00;5.00;;;;;;;;;;5135649;27;20203;-82
2021/12/08 08:33:27;;;;;;;12.67;5.37;;;;;;;;;;5135525;27;20223;-82
2021/12/08 08:35:59;;;;;;;9.17;5.13;;;;;;;;;;5135055;27;20199;-82
2021/12/08 08:38:31;;;;;;;10.73;5.20;;;;;;;;;;5135256;27;20264;-82
2021/12/08 08:41:02;;;;;;;14.43;4.13;;;;;;;;;;5134984;27;20229;-81
2021/12/08 08:43:31;;;;;;;6.77;4.20;;;;;;;;;;5135509;27;20192;-82
2021/12/08 08:46:06;;;;;;;10.67;5.73;;;;;;;;;;5135460;27;20236;-82
2021/12/08 08:48:40;;;;;;;13.80;6.33;;;;;;;;;;5135461;27;20202;-82
2021/12/08 08:51:14;;;;;;;10.03;5.30;;;;;;;;;;5135554;27;20196;-82
2021/12/08 08:53:44;;;;;;;9.30;5.27;;;;;;;;;;5135522;27;20194;-82
2021/12/08 08:56:17;;;;;;;7.53;4.67;;;;;;;;;;5135583;27;20222;-82
2021/12/08 08:58:49;;;;;;;10.37;5.27;;;;;;;;;;5134863;27;20180;-82
2021/12/08 09:01:20;;;;;;;10.67;5.37;;;;;;;;;;5135424;27;20241;-82
2021/12/08 09:03:51;;;;;;;8.23;5.63;;;;;;;;;;5135176;27;20229;-82
2021/12/08 09:06:22;;;;;;;9.57;4.70;;;;;;;;;;5135277;27;20187;-82
2021/12/08 09:08:51;;;;;;;8.63;5.00;;;;;;;;;;5135029;27;20207;-83
2021/12/08 09:11:22;;;;;;;9.10;4.50;;;;;;;;;;5135636;27;20199;-82
2021/12/08 09:13:59;;;;;;;11.70;5.03;;;;;;;;;;5135139;27;20184;-83
2021/12/08 09:16:33;;;;;;;9.70;3.93;;;;;;;;;;5134804;27;20231;-82
2021/12/08 09:19:09;;;;;;;11.53;4.47;;;;;;;;;;5135107;27;20187;-83
2021/12/08 09:21:47;;;;;;;8.03;4.27;;;;;;;;;;5135184;27;20226;-82
2021/12/08 09:24:40;;;;;;;11.67;4.87;;;;;;;;;;5134529;27;20286;-83
2021/12/08 09:27:10;;;;;;;14.23;6.30;;;;;;;;;;5134970;27;20206;-82
2021/12/08 09:29:45;;;;;;;9.77;4.33;;;;;;;;;;5134857;27;20202;-83
2021/12/08 09:32:19;;;;;;;7.30;3.80;;;;;;;;;;5135147;27;20199;-82
2021/12/08 09:34:54;;;;;;;6.67;4.43;;;;;;;;;;5134986;27;20186;-82
2021/12/08 09:37:26;;;;;;;8.93;5.33;;;;;;;;;;5136212;27;20210;-83
2021/12/08 09:39:56;;;;;;;12.87;5.37;;;;;;;;;;5138665;27;20222;-82
2021/12/08 09:42:26;;;;;;;7.23;4.37;;;;;;;;;;5138529;27;20207;-82
2021/12/08 09:44:57;;;;;;;13.47;3.87;;;;;;;;;;5138687;27;20221;-82
2021/12/08 09:47:29;;;;;;;10.30;5.63;;;;;;;;;;5139202;27;20195;-83
2021/12/08 09:50:03;;;;;;;7.67;4.73;;;;;;;;;;5139220;27;20232;-82
2021/12/08 09:52:37;;;;;;;9.93;5.10;;;;;;;;;;5138685;27;20194;-83
2021/12/08 09:55:09;;;;;;;7.50;4.20;;;;;;;;;;5138954;27;20199;-82
2021/12/08 09:57:39;;;;;;;7.43;5.07;;;;;;;;;;5138429;27;20195;-83
2021/12/08 10:00:09;;;;;;;9.47;5.33;;;;;;;;;;5138458;27;20307;-82
2021/12/08 10:02:39;;;;;;;9.90;5.53;;;;;;;;;;5138841;27;20203;-82
2021/12/08 10:05:10;;;;;;;4.83;2.73;;;;;;;;;;5138316;27;20234;-82
2021/12/08 10:07:43;;;;;;;10.30;6.93;;;;;;;;;;5138792;27;20308;-83
2021/12/08 10:10:13;;;;;;;11.17;5.80;;;;;;;;;;5138634;27;20192;-82
2021/12/08 10:12:42;;;;;;;9.23;5.30;;;;;;;;;;5138799;27;20195;-82
2021/12/08 10:15:12;;;;;;;11.10;6.03;;;;;;;;;;5138318;27;20208;-82
2021/12/08 10:17:40;;;;;;;11.27;7.70;;;;;;;;;;5137800;27;20235;-83
2021/12/08 10:20:13;;;;;;;9.50;7.33;;;;;;;;;;5138482;27;20253;-80
2021/12/08 10:22:45;;;;;;;6.73;5.50;;;;;;;;;;5138623;27;20191;-82
2021/12/08 10:25:17;;;;;;;9.00;5.23;;;;;;;;;;5137727;27;20282;-83
2021/12/08 10:28:08;;;;;;;8.47;5.77;;;;;;;;;;5138120;27;20200;-83
2021/12/08 10:30:48;;;;;;;7.40;6.47;;;;;;;;;;5135586;27;20207;-82
2021/12/08 10:33:46;;;;;;;8.07;3.37;;;;;;;;;;5138279;27;20198;-83
2021/12/08 10:36:34;;;;;;;6.13;5.40;;;;;;;;;;5138421;27;20236;-83
2021/12/08 10:39:08;;;;;;;7.43;6.10;;;;;;;;;;5137971;27;20188;-83
2021/12/08 10:41:48;;;;;;;6.97;5.70;;;;;;;;;;5137699;27;20215;-83
2021/12/08 10:44:43;;;;;;;8.07;6.30;;;;;;;;;;5137548;27;20256;-83
2021/12/08 10:47:14;;;;;;;7.07;5.63;;;;;;;;;;5137783;27;20187;-83
2021/12/08 10:55:21;;;;;;;7.20;6.50;;;;;;;;;;5137700;27;20226;-82
2021/12/08 10:57:55;;;;;;;7.50;6.80;;;;;;;;;;5137501;27;20192;-83
2021/12/08 11:00:26;;;;;;;8.70;6.93;;;;;;;;;;5137584;27;20234;-83
2021/12/08 11:02:55;;;;;;;4.73;4.10;;;;;;;;;;5137458;27;20222;-82
2021/12/08 11:05:39;;;;;;;8.67;7.40;;;;;;;;;;5137781;27;20388;-83
2021/12/08 11:08:09;;;;;;;7.93;7.13;;;;;;;;;;5137075;27;20195;-83
2021/12/08 11:10:40;;;;;;;6.60;6.00;;;;;;;;;;5137441;27;20188;-83
2021/12/08 11:13:10;;;;;;;12.20;7.00;;;;;;;;;;5137496;27;20206;-83
2021/12/08 11:15:39;;;;;;;9.03;7.43;;;;;;;;;;5137390;27;20232;-83
2021/12/08 11:18:09;;;;;;;6.53;5.53;;;;;;;;;;5137283;27;20196;-83
2021/12/08 11:20:42;;;;;;;8.43;6.73;;;;;;;;;;5137301;27;20292;-83
2021/12/08 11:23:17;;;;;;;8.53;6.50;;;;;;;;;;5136874;27;20203;-83
2021/12/08 11:25:52;;;;;;;9.20;7.47;;;;;;;;;;5137072;27;20244;-83
2021/12/08 11:28:25;;;;;;;7.93;6.67;;;;;;;;;;5136681;27;20183;-83
2021/12/08 11:30:56;;;;;;;6.07;5.47;;;;;;;;;;5137203;27;20204;-83
2021/12/08 11:33:27;;;;;;;6.30;5.80;;;;;;;;;;5136844;27;20207;-83
2021/12/08 11:36:10;;;;;;;7.03;6.33;;;;;;;;;;5136735;27;20224;-83
2021/12/08 11:38:43;;;;;;;9.73;6.87;;;;;;;;;;5135571;27;20211;-82
2021/12/08 11:41:26;;;;;;;9.27;7.47;;;;;;;;;;5136610;27;20223;-83
2021/12/08 11:43:59;;;;;;;9.70;6.17;;;;;;;;;;5135429;27;20305;-83
2021/12/08 11:46:28;;;;;;;8.90;6.07;;;;;;;;;;5136167;27;20199;-83
2021/12/08 11:49:04;;;;;;;8.37;6.10;;;;;;;;;;5136445;27;20290;-83
2021/12/08 11:51:35;;;;;;;5.33;4.17;;;;;;;;;;5136771;27;20217;-83
2021/12/08 11:54:04;;;;;;;7.67;6.20;;;;;;;;;;5136291;27;20200;-82
2021/12/08 11:56:44;;;;;;;4.37;3.97;;;;;;;;;;5136413;27;20211;-83
2021/12/08 11:59:15;;;;;;;10.47;4.30;;;;;;;;;;5135637;27;20234;-83
2021/12/08 12:01:43;;;;;;;7.37;5.00;;;;;;;;;;5135891;27;20241;-83
2021/12/08 12:04:12;;;;;;;6.17;5.40;;;;;;;;;;5136098;27;20223;-83
2021/12/08 12:06:41;;;;;;;6.30;4.33;;;;;;;;;;5136122;27;20200;-83
2021/12/08 12:09:10;;;;;;;5.23;3.47;;;;;;;;;;5136316;27;20212;-83
2021/12/08 12:11:54;;;;;;;7.40;5.67;;;;;;;;;;5136070;27;20241;-83
2021/12/08 12:14:28;;;;;;;8.67;4.73;;;;;;;;;;5136366;27;20216;-83
2021/12/08 12:16:58;;;;;;;6.97;5.10;;;;;;;;;;5135555;27;20242;-83
2021/12/08 12:19:34;;;;;;;5.93;4.67;;;;;;;;;;5135875;27;20211;-82
2021/12/08 12:22:04;;;;;;;4.87;4.37;;;;;;;;;;5135898;27;20287;-83
2021/12/08 12:24:47;;;;;;;8.13;5.20;;;;;;;;;;5136162;27;20203;-84
2021/12/08 12:27:26;;;;;;;6.00;4.90;;;;;;;;;;5135670;27;20218;-83
2021/12/08 12:30:10;;;;;;;5.17;4.13;;;;;;;;;;5135491;27;20200;-82
2021/12/08 12:32:44;;;;;;;6.03;5.07;;;;;;;;;;5135879;27;20192;-82
2021/12/08 12:35:18;;;;;;;5.63;4.80;;;;;;;;;;5135697;27;20245;-82
2021/12/08 12:37:48;;;;;;;5.17;3.80;;;;;;;;;;5135201;27;20184;-83
2021/12/08 12:40:20;;;;;;;6.63;3.97;;;;;;;;;;5135444;27;20204;-83
2021/12/08 12:42:50;;;;;;;6.63;5.40;;;;;;;;;;5135170;27;20216;-82
2021/12/08 12:45:24;;;;;;;8.47;4.73;;;;;;;;;;5135241;27;20208;-83
2021/12/08 12:48:16;;;;;;;6.07;4.70;;;;;;;;;;5135832;27;20271;-83
2021/12/08 12:50:59;;;;;;;9.67;5.33;;;;;;;;;;5135940;27;20203;-82
2021/12/08 12:53:46;;;;;;;4.17;2.93;;;;;;;;;;5135391;27;20210;-83
2021/12/08 12:56:21;;;;;;;6.30;3.53;;;;;;;;;;5135454;27;20222;-84
2021/12/08 12:58:51;;;;;;;6.90;4.27;;;;;;;;;;5135716;27;20205;-84
2021/12/08 13:01:27;;;;;;;3.70;3.33;;;;;;;;;;5135200;27;20309;-85
2021/12/08 13:04:08;;;;;;;4.97;3.13;;;;;;;;;;5134845;27;20224;-83
2021/12/08 13:06:56;;;;;;;4.63;3.73;;;;;;;;;;5135372;27;20278;-83
2021/12/08 13:09:41;;;;;;;6.17;3.67;;;;;;;;;;5135427;27;20207;-84
2021/12/08 13:12:14;;;;;;;8.27;5.03;;;;;;;;;;5134662;27;20291;-84
2021/12/08 13:14:45;;;;;;;9.90;4.60;;;;;;;;;;5135318;27;20275;-83
2021/12/08 13:17:26;;;;;;;8.43;5.20;;;;;;;;;;5134795;27;20291;-84
2021/12/08 13:19:58;;;;;;;6.83;5.37;;;;;;;;;;5134954;28;20195;-84
2021/12/08 13:22:50;;;;;;;9.63;5.37;;;;;;;;;;5135234;27;20446;-84
2021/12/08 13:25:25;;;;;;;6.50;4.10;;;;;;;;;;5134807;27;20218;-84
2021/12/08 13:27:54;;;;;;;6.37;4.77;;;;;;;;;;5135012;28;20195;-84
2021/12/08 13:30:23;;;;;;;8.93;4.67;;;;;;;;;;5134817;27;20208;-84
2021/12/08 13:33:06;;;;;;;6.33;5.00;;;;;;;;;;5135156;27;20198;-83
2021/12/08 13:35:36;;;;;;;12.43;5.47;;;;;;;;;;5134839;27;20215;-84
2021/12/08 13:38:06;;;;;;;4.13;3.70;;;;;;;;;;5134486;27;20208;-84
2021/12/08 13:40:43;;;;;;;6.37;4.43;;;;;;;;;;5134956;27;20228;-84
2021/12/08 13:43:12;;;;;;;5.60;4.47;;;;;;;;;;5134265;28;20287;-82
2021/12/08 13:45:45;;;;;;;6.33;4.53;;;;;;;;;;5134572;27;20257;-81
2021/12/08 13:48:15;;;;;;;5.30;4.07;;;;;;;;;;5134837;27;20203;-81
2021/12/08 13:50:44;;;;;;;8.13;5.57;;;;;;;;;;5134469;27;20211;-82
2021/12/08 13:53:16;;;;;;;6.57;4.47;;;;;;;;;;5134499;27;20203;-82
2021/12/08 13:55:48;;;;;;;9.40;4.97;;;;;;;;;;5134735;27;20260;-82
2021/12/08 13:58:22;;;;;;;6.47;5.23;;;;;;;;;;5134733;27;20205;-82
2021/12/08 14:00:54;;;;;;;9.87;6.23;;;;;;;;;;5134101;27;20207;-82
2021/12/08 14:03:25;;;;;;;8.47;5.53;;;;;;;;;;5134678;27;20227;-82
2021/12/08 14:05:56;;;;;;;7.60;5.27;;;;;;;;;;5134298;27;20207;-82
2021/12/08 14:08:28;;;;;;;6.30;4.57;;;;;;;;;;5134688;27;20260;-82
2021/12/08 14:11:02;;;;;;;6.93;5.47;;;;;;;;;;5134438;27;20202;-82
2021/12/08 14:13:32;;;;;;;5.63;4.80;;;;;;;;;;5134531;27;20192;-82
2021/12/08 14:16:07;;;;;;;6.77;5.23;;;;;;;;;;5133915;28;20236;-81
2021/12/08 14:18:40;;;;;;;9.03;5.07;;;;;;;;;;5134880;27;20192;-81
2021/12/08 14:21:20;;;;;;;10.33;5.73;;;;;;;;;;5134476;27;20227;-82
2021/12/08 14:23:51;;;;;;;8.67;6.77;;;;;;;;;;5135897;27;20223;-81
2021/12/08 14:26:21;;;;;;;9.50;6.63;;;;;;;;;;5138199;27;20190;-82
2021/12/08 14:28:51;;;;;;;8.80;5.47;;;;;;;;;;5138114;27;20271;-82
2021/12/08 14:31:27;;;;;;;9.87;5.63;;;;;;;;;;5137788;27;20188;-81
2021/12/08 14:34:13;;;;;;;8.30;5.07;;;;;;;;;;5138048;27;20260;-81
2021/12/08 14:36:47;;;;;;;7.80;5.20;;;;;;;;;;5137896;27;20211;-82
2021/12/08 14:39:20;;;;;;;8.93;5.07;;;;;;;;;;5137909;27;20256;-82
2021/12/08 14:41:53;;;;;;;7.03;4.47;;;;;;;;;;5138147;27;20196;-82
2021/12/08 14:44:26;;;;;;;8.00;4.63;;;;;;;;;;5137632;27;20199;-82
2021/12/08 14:47:01;;;;;;;8.03;5.50;;;;;;;;;;5137767;27;20208;-82
2021/12/08 14:49:35;;;;;;;8.53;4.17;;;;;;;;;;5137930;27;20187;-82
2021/12/08 14:52:08;;;;;;;7.90;5.30;;;;;;;;;;5137650;27;20200;-82
2021/12/08 14:54:37;;;;;;;6.90;4.77;;;;;;;;;;5138120;27;20199;-82
2021/12/08 14:57:13;;;;;;;4.80;3.57;;;;;;;;;;5138405;27;20203;-83
2021/12/08 14:59:43;;;;;;;5.40;4.73;;;;;;;;;;5138069;27;20211;-84
2021/12/08 15:02:13;;;;;;;8.07;4.70;;;;;;;;;;5137666;27;20219;-84
2021/12/08 15:04:43;;;;;;;6.67;3.40;;;;;;;;;;5137245;27;20307;-84
2021/12/08 15:07:15;;;;;;;10.77;5.17;;;;;;;;;;5137291;27;20203;-84
2021/12/08 15:09:56;;;;;;;9.93;4.70;;;;;;;;;;5137172;27;20188;-84
2021/12/08 15:12:24;;;;;;;12.20;4.67;;;;;;;;;;5137474;27;20207;-84
2021/12/08 15:14:56;;;;;;;9.73;5.27;;;;;;;;;;5137106;27;20199;-84
2021/12/08 15:17:33;;;;;;;9.80;5.33;;;;;;;;;;5136601;27;20227;-84
2021/12/08 15:20:07;;;;;;;8.77;5.57;;;;;;;;;;5137491;27;20191;-84
2021/12/08 15:22:41;;;;;;;10.17;6.23;;;;;;;;;;5136754;27;20271;-83
2021/12/08 15:25:19;;;;;;;9.80;5.83;;;;;;;;;;5136807;27;20240;-84
2021/12/08 15:27:49;;;;;;;8.47;5.90;;;;;;;;;;5136760;27;20211;-84
2021/12/08 15:30:36;;;;;;;10.17;5.50;;;;;;;;;;5136994;27;20260;-84
2021/12/08 15:33:25;;;;;;;11.10;5.67;;;;;;;;;;5136665;27;20203;-84
2021/12/08 15:36:06;;;;;;;14.13;6.73;;;;;;;;;;5136978;27;20207;-85
2021/12/08 15:38:36;;;;;;;12.40;4.53;;;;;;;;;;5136672;27;20278;-85
2021/12/08 15:41:12;;;;;;;8.97;6.00;;;;;;;;;;5135942;27;20207;-85
2021/12/08 15:43:42;;;;;;;10.73;6.33;;;;;;;;;;5136871;27;20231;-85
2021/12/08 15:46:16;;;;;;;9.63;6.47;;;;;;;;;;5136233;27;20208;-85